createdAt,value
2018-02-24T00:00:03.893Z,-3.50
2018-02-24T00:02:32.265Z,-3.50
2018-02-24T00:05:00.639Z,-3.50
2018-02-24T00:07:29.004Z,-3.50
2018-02-24T00:09:57.352Z,-3.50
2018-02-24T00:12:26.534Z,-3.50
2018-02-24T00:14:54.880Z,-3.60
2018-02-24T00:17:23.257Z,-3.60
2018-02-24T00:19:51.611Z,-3.60
2018-02-24T00:22:19.969Z,-3.60
2018-02-24T00:24:48.341Z,-3.60
2018-02-24T00:27:16.707Z,-3.60
2018-02-24T00:29:45.095Z,-3.60
2018-02-24T00:32:13.425Z,-3.60
2018-02-24T00:34:41.797Z,-3.60
2018-02-24T00:37:10.202Z,-3.70
2018-02-24T00:39:38.592Z,-3.60
2018-02-24T00:42:06.951Z,-3.70
2018-02-24T00:44:35.289Z,-3.70
2018-02-24T00:47:05.025Z,-3.70
2018-02-24T00:49:33.389Z,-3.70
2018-02-24T00:52:02.509Z,-3.70
2018-02-24T00:54:30.880Z,-3.70
2018-02-24T00:56:59.241Z,-3.70
2018-02-24T00:59:28.372Z,-3.60
2018-02-24T01:01:56.717Z,-3.70
2018-02-24T01:04:25.100Z,-3.70
2018-02-24T01:06:53.453Z,-3.70
2018-02-24T01:09:21.818Z,-3.70
2018-02-24T01:11:50.200Z,-3.60
2018-02-24T01:14:18.595Z,-3.60
2018-02-24T01:16:46.942Z,-3.60
2018-02-24T01:19:15.275Z,-3.60
2018-02-24T01:21:43.680Z,-3.60
2018-02-24T01:24:12.040Z,-3.70
2018-02-24T01:26:41.153Z,-3.70
2018-02-24T01:29:09.524Z,-3.70
2018-02-24T01:31:37.876Z,-3.70
2018-02-24T01:34:07.023Z,-3.80
2018-02-24T01:36:35.371Z,-3.80
2018-02-24T01:39:03.742Z,-3.80
2018-02-24T01:41:32.121Z,-3.80
2018-02-24T01:44:00.489Z,-3.80
2018-02-24T01:46:28.861Z,-3.80
2018-02-24T01:48:57.216Z,-3.90
2018-02-24T01:51:25.598Z,-3.80
2018-02-24T01:53:53.932Z,-3.80
2018-02-24T01:56:22.298Z,-3.90
2018-02-24T01:58:50.641Z,-3.90
2018-02-24T02:01:18.996Z,-3.90
2018-02-24T02:03:47.408Z,-3.90
2018-02-24T02:06:16.315Z,-3.90
2018-02-24T02:08:45.444Z,-3.90
2018-02-24T02:11:13.856Z,-3.90
2018-02-24T02:13:42.355Z,-3.80
2018-02-24T02:16:10.697Z,-3.80
2018-02-24T02:18:39.066Z,-3.80
2018-02-24T02:21:07.448Z,-3.80
2018-02-24T02:23:35.833Z,-3.80
2018-02-24T02:26:04.200Z,-3.80
2018-02-24T02:28:32.545Z,-3.90
2018-02-24T02:31:01.779Z,-3.90
2018-02-24T02:33:30.133Z,-4.00
2018-02-24T02:35:59.531Z,-4.00
2018-02-24T02:38:27.873Z,-4.00
2018-02-24T02:40:56.224Z,-4.00
2018-02-24T02:43:24.619Z,-4.00
2018-02-24T02:45:52.940Z,-4.00
2018-02-24T02:48:22.062Z,-4.10
2018-02-24T02:50:50.464Z,-4.10
2018-02-24T02:53:18.836Z,-4.10
2018-02-24T02:55:47.213Z,-4.10
2018-02-24T02:58:15.577Z,-4.20
2018-02-24T03:00:43.948Z,-4.20
2018-02-24T03:03:13.079Z,-4.20
2018-02-24T03:05:41.464Z,-4.20
2018-02-24T03:08:09.916Z,-4.20
2018-02-24T03:10:38.332Z,-4.20
2018-02-24T03:13:06.691Z,-4.20
2018-02-24T03:15:35.040Z,-4.20
2018-02-24T03:18:04.185Z,-4.20
2018-02-24T03:20:32.548Z,-4.20
2018-02-24T03:23:00.976Z,-4.20
2018-02-24T03:25:29.343Z,-4.20
2018-02-24T03:27:57.707Z,-4.20
2018-02-24T03:30:26.073Z,-4.20
2018-02-24T03:32:54.438Z,-4.30
2018-02-24T03:35:22.868Z,-4.30
2018-02-24T03:37:51.198Z,-4.30
2018-02-24T03:40:19.655Z,-4.30
2018-02-24T03:42:48.902Z,-4.30
2018-02-24T03:45:17.285Z,-4.30
2018-02-24T03:47:45.626Z,-4.30
2018-02-24T03:50:13.983Z,-4.40
2018-02-24T03:52:43.107Z,-4.40
2018-02-24T03:55:11.463Z,-4.40
2018-02-24T03:57:40.643Z,-4.40
2018-02-24T04:00:08.991Z,-4.40
2018-02-24T04:02:37.381Z,-4.40
2018-02-24T04:05:05.746Z,-4.40
2018-02-24T04:07:34.120Z,-4.40
2018-02-24T04:10:02.494Z,-4.40
2018-02-24T04:12:30.857Z,-4.40
2018-02-24T04:14:59.239Z,-4.40
2018-02-24T04:17:27.634Z,-4.40
2018-02-24T04:19:56.008Z,-4.40
2018-02-24T04:22:24.357Z,-4.40
2018-02-24T04:24:52.713Z,-4.40
2018-02-24T04:27:21.063Z,-4.30
2018-02-24T04:29:49.426Z,-4.30
2018-02-24T04:32:17.801Z,-4.30
2018-02-24T04:34:46.390Z,-4.30
2018-02-24T04:37:14.768Z,-4.30
2018-02-24T04:39:43.144Z,-4.30
2018-02-24T04:42:11.503Z,-4.30
2018-02-24T04:44:39.864Z,-4.30
2018-02-24T04:47:08.985Z,-4.30
2018-02-24T04:49:37.492Z,-4.30
2018-02-24T04:52:05.841Z,-4.30
2018-02-24T04:54:34.243Z,-4.30
2018-02-24T04:57:02.605Z,-4.30
2018-02-24T04:59:30.959Z,-4.30
2018-02-24T05:02:00.077Z,-4.30
2018-02-24T05:04:28.458Z,-4.40
2018-02-24T05:06:56.815Z,-4.40
2018-02-24T05:09:25.946Z,-4.40
2018-02-24T05:11:54.338Z,-4.40
2018-02-24T05:14:22.698Z,-4.40
2018-02-24T05:16:51.056Z,-4.40
2018-02-24T05:19:20.224Z,-4.50
2018-02-24T05:21:48.576Z,-4.50
2018-02-24T05:24:16.925Z,-4.50
2018-02-24T05:26:45.639Z,-4.60
2018-02-24T05:29:13.982Z,-4.60
2018-02-24T05:31:42.390Z,-4.60
2018-02-24T05:34:11.486Z,-4.60
2018-02-24T05:36:39.836Z,-4.60
2018-02-24T05:39:08.202Z,-4.60
2018-02-24T05:41:37.320Z,-4.60
2018-02-24T05:44:05.712Z,-4.60
2018-02-24T05:46:34.051Z,-4.60
2018-02-24T05:49:03.207Z,-4.60
2018-02-24T05:51:31.548Z,-4.70
2018-02-24T05:53:59.906Z,-4.60
2018-02-24T05:56:28.269Z,-4.70
2018-02-24T05:58:56.671Z,-4.70
2018-02-24T06:01:25.805Z,-4.70
2018-02-24T06:03:54.201Z,-4.70
2018-02-24T06:06:22.896Z,-4.70
2018-02-24T06:08:51.271Z,-4.60
2018-02-24T06:11:19.736Z,-4.60
2018-02-24T06:13:48.096Z,-4.60
2018-02-24T06:16:16.488Z,-4.50
2018-02-24T06:18:44.870Z,-4.40
2018-02-24T06:21:13.242Z,-4.30
2018-02-24T06:23:41.621Z,-4.20
2018-02-24T06:26:10.032Z,-4.10
2018-02-24T06:28:38.384Z,-4.00
2018-02-24T06:31:06.733Z,-3.90
2018-02-24T06:33:35.870Z,-3.70
2018-02-24T06:36:04.226Z,-3.70
2018-02-24T06:38:32.624Z,-3.60
2018-02-24T06:41:00.988Z,-3.50
2018-02-24T06:43:29.442Z,-3.50
2018-02-24T06:45:57.809Z,-3.40
2018-02-24T06:48:26.152Z,-3.30
2018-02-24T06:50:54.507Z,-3.30
2018-02-24T06:53:22.860Z,-3.20
2018-02-24T06:55:51.972Z,-3.10
2018-02-24T06:58:20.504Z,-3.10
2018-02-24T07:00:49.090Z,-3.10
2018-02-24T07:03:17.441Z,-3.00
2018-02-24T07:05:45.864Z,-3.00
2018-02-24T07:08:14.217Z,-2.90
2018-02-24T07:10:42.688Z,-2.90
2018-02-24T07:13:11.040Z,-2.80
2018-02-24T07:15:39.565Z,-2.80
2018-02-24T07:18:07.919Z,-2.70
2018-02-24T07:20:36.396Z,-2.70
2018-02-24T07:23:04.760Z,-2.60
2018-02-24T07:25:33.108Z,-2.60
2018-02-24T07:28:01.462Z,-2.50
2018-02-24T07:30:29.791Z,-2.50
2018-02-24T07:32:58.191Z,-2.40
2018-02-24T07:35:31.797Z,-2.40
2018-02-24T07:38:00.177Z,-2.30
2018-02-24T07:40:28.512Z,-2.30
2018-02-24T07:42:57.698Z,-2.10
2018-02-24T07:45:26.048Z,-2.20
2018-02-24T07:47:54.401Z,-2.10
2018-02-24T07:50:22.755Z,-2.00
2018-02-24T07:52:51.903Z,-1.90
2018-02-24T07:55:20.332Z,-2.00
2018-02-24T07:57:49.593Z,-1.90
2018-02-24T08:00:17.920Z,-1.90
2018-02-24T08:02:46.297Z,-1.90
2018-02-24T08:05:14.649Z,-1.80
2018-02-24T08:07:43.098Z,-1.80
2018-02-24T08:10:11.435Z,-1.80
2018-02-24T08:12:39.810Z,-1.70
2018-02-24T08:15:08.917Z,-1.60
2018-02-24T08:17:37.333Z,-1.60
2018-02-24T08:20:06.235Z,-1.50
2018-02-24T08:22:35.156Z,-1.50
2018-02-24T08:25:03.572Z,-1.40
2018-02-24T08:27:31.971Z,-1.40
2018-02-24T08:30:00.311Z,-1.30
2018-02-24T08:32:28.683Z,-1.30
2018-02-24T08:34:57.119Z,-1.30
2018-02-24T08:37:25.443Z,-1.20
2018-02-24T08:39:54.556Z,-1.10
2018-02-24T08:42:22.952Z,-1.10
2018-02-24T08:44:51.316Z,-1.00
2018-02-24T08:47:19.681Z,-0.90
2018-02-24T08:49:48.848Z,-0.70
2018-02-24T08:52:17.182Z,-0.80
2018-02-24T08:54:45.576Z,-0.70
2018-02-24T08:57:13.924Z,-0.60
2018-02-24T08:59:42.339Z,-0.50
2018-02-24T09:02:10.665Z,-0.30
2018-02-24T09:04:39.239Z,-0.20
2018-02-24T09:07:07.567Z,0.00
2018-02-24T09:09:35.966Z,0.10
2018-02-24T09:12:04.329Z,0.20
2018-02-24T09:14:32.703Z,0.30
2018-02-24T09:17:01.117Z,0.40
2018-02-24T09:19:29.447Z,0.50
2018-02-24T09:21:57.791Z,0.70
2018-02-24T09:24:26.163Z,0.80
2018-02-24T09:26:54.521Z,0.80
2018-02-24T09:29:22.853Z,0.90
2018-02-24T09:31:51.974Z,1.20
2018-02-24T09:34:20.333Z,1.20
2018-02-24T09:36:48.665Z,1.20
2018-02-24T09:39:17.087Z,1.30
2018-02-24T09:41:45.441Z,1.50
2018-02-24T09:44:13.882Z,1.50
2018-02-24T09:46:42.217Z,1.60
2018-02-24T09:49:10.572Z,1.60
2018-02-24T09:51:38.907Z,1.60
2018-02-24T09:54:07.257Z,1.70
2018-02-24T09:56:36.382Z,1.90
2018-02-24T09:59:04.707Z,1.90
2018-02-24T10:01:33.080Z,2.00
2018-02-24T10:04:01.430Z,2.10
2018-02-24T10:06:29.828Z,2.30
2018-02-24T10:08:58.270Z,2.50
2018-02-24T10:11:26.597Z,2.60
2018-02-24T10:13:55.750Z,2.70
2018-02-24T10:16:24.083Z,2.80
2018-02-24T10:18:53.312Z,2.90
2018-02-24T10:21:21.624Z,2.90
2018-02-24T10:23:50.046Z,2.90
2018-02-24T10:26:18.377Z,2.80
2018-02-24T10:28:46.713Z,2.90
2018-02-24T10:31:15.817Z,2.70
2018-02-24T10:33:44.165Z,2.70
2018-02-24T10:36:12.788Z,2.60
2018-02-24T10:38:41.270Z,2.50
2018-02-24T10:41:09.604Z,2.40
2018-02-24T10:43:37.960Z,2.30
2018-02-24T10:46:06.298Z,2.30
2018-02-24T10:48:35.445Z,2.30
2018-02-24T10:51:03.753Z,2.30
2018-02-24T10:53:32.095Z,2.30
2018-02-24T10:56:00.432Z,2.30
2018-02-24T10:58:29.599Z,2.40
2018-02-24T11:00:57.946Z,2.40
2018-02-24T11:03:26.289Z,2.60
2018-02-24T11:05:54.724Z,2.80
2018-02-24T11:08:23.057Z,3.00
2018-02-24T11:10:51.454Z,3.00
2018-02-24T11:13:19.773Z,3.10
2018-02-24T11:15:48.096Z,3.20
2018-02-24T11:18:16.440Z,3.30
2018-02-24T11:20:45.554Z,4.20
2018-02-24T11:23:14.689Z,4.90
2018-02-24T11:25:43.033Z,4.90
2018-02-24T11:28:12.135Z,6.60
2018-02-24T11:30:40.488Z,6.60
2018-02-24T11:33:08.840Z,7.40
2018-02-24T11:35:37.194Z,8.20
2018-02-24T11:38:05.546Z,8.70
2018-02-24T11:40:33.868Z,9.30
2018-02-24T11:43:02.226Z,9.70
2018-02-24T11:45:30.614Z,9.70
2018-02-24T11:47:58.953Z,9.30
2018-02-24T11:50:27.366Z,8.60
2018-02-24T11:52:55.682Z,7.70
2018-02-24T11:55:24.043Z,7.40
2018-02-24T11:57:52.369Z,7.40
2018-02-24T12:00:21.481Z,7.50
2018-02-24T12:02:49.848Z,7.40
2018-02-24T12:05:18.225Z,7.60
2018-02-24T12:07:46.560Z,8.00
2018-02-24T12:10:15.041Z,8.30
2018-02-24T12:12:43.399Z,8.60
2018-02-24T12:15:11.868Z,8.70
2018-02-24T12:17:40.246Z,9.00
2018-02-24T12:20:08.581Z,9.10
2018-02-24T12:22:37.000Z,9.40
2018-02-24T12:25:05.497Z,9.40
2018-02-24T12:27:33.804Z,9.80
2018-02-24T12:30:02.150Z,10.30
2018-02-24T12:32:30.540Z,10.50
2018-02-24T12:34:58.906Z,10.50
2018-02-24T12:37:27.287Z,10.20
2018-02-24T12:39:55.649Z,9.50
2018-02-24T12:42:23.999Z,8.50
2018-02-24T12:44:53.096Z,7.60
2018-02-24T12:47:22.289Z,7.80
2018-02-24T12:49:50.638Z,7.70
2018-02-24T12:52:18.989Z,7.90
2018-02-24T12:54:47.307Z,8.20
2018-02-24T12:57:15.644Z,7.80
2018-02-24T12:59:44.233Z,7.50
2018-02-24T13:02:12.623Z,7.00
2018-02-24T13:04:41.096Z,7.00
2018-02-24T13:07:09.442Z,6.70
2018-02-24T13:09:37.795Z,6.70
2018-02-24T13:12:06.244Z,6.80
2018-02-24T13:14:34.616Z,6.70
2018-02-24T13:17:02.988Z,6.50
2018-02-24T13:19:31.324Z,6.60
2018-02-24T13:21:59.855Z,6.60
2018-02-24T13:24:28.192Z,6.90
2018-02-24T13:26:57.313Z,7.50
2018-02-24T13:29:25.796Z,7.50
2018-02-24T13:31:54.122Z,7.50
2018-02-24T13:34:22.565Z,7.60
2018-02-24T13:36:50.891Z,7.60
2018-02-24T13:39:19.233Z,7.90
2018-02-24T13:41:47.677Z,8.20
2018-02-24T13:44:16.950Z,9.80
2018-02-24T13:46:45.269Z,9.80
2018-02-24T13:49:13.648Z,10.50
2018-02-24T13:51:42.007Z,10.70
2018-02-24T13:54:10.422Z,10.30
2018-02-24T13:56:38.789Z,10.10
2018-02-24T13:59:07.172Z,9.80
2018-02-24T14:01:35.526Z,9.80
2018-02-24T14:04:04.638Z,9.20
2018-02-24T14:06:33.130Z,9.20
2018-02-24T14:09:01.508Z,9.60
2018-02-24T14:11:29.845Z,10.40
2018-02-24T14:13:58.188Z,10.80
2018-02-24T14:16:26.544Z,11.50
2018-02-24T14:18:54.921Z,11.70
2018-02-24T14:21:23.277Z,12.00
2018-02-24T14:23:52.378Z,12.60
2018-02-24T14:26:21.486Z,12.80
2018-02-24T14:28:49.816Z,12.70
2018-02-24T14:31:18.321Z,12.90
2018-02-24T14:33:46.657Z,13.00
2018-02-24T14:36:15.120Z,13.10
2018-02-24T14:38:43.506Z,13.10
2018-02-24T14:41:11.954Z,13.30
2018-02-24T14:43:41.064Z,12.40
2018-02-24T14:46:09.573Z,12.40
2018-02-24T14:48:38.011Z,11.60
2018-02-24T14:51:07.096Z,9.50
2018-02-24T14:53:35.441Z,9.40
2018-02-24T14:56:03.864Z,9.60
2018-02-24T14:58:33.119Z,10.70
2018-02-24T15:01:01.468Z,10.70
2018-02-24T15:03:29.965Z,11.50
2018-02-24T15:05:58.335Z,11.80
2018-02-24T15:08:26.710Z,12.40
2018-02-24T15:10:55.183Z,12.70
2018-02-24T15:13:23.611Z,12.40
2018-02-24T15:15:51.960Z,12.30
2018-02-24T15:18:20.320Z,12.00
2018-02-24T15:20:48.660Z,11.50
2018-02-24T15:23:17.084Z,10.60
2018-02-24T15:25:45.420Z,10.10
2018-02-24T15:28:13.804Z,9.60
2018-02-24T15:30:42.132Z,8.70
2018-02-24T15:33:10.520Z,7.80
2018-02-24T15:35:38.842Z,7.10
2018-02-24T15:38:07.269Z,6.40
2018-02-24T15:40:36.150Z,6.00
2018-02-24T15:43:04.633Z,5.60
2018-02-24T15:45:32.979Z,5.30
2018-02-24T15:48:01.411Z,5.00
2018-02-24T15:50:29.789Z,4.60
2018-02-24T15:52:58.122Z,4.20
2018-02-24T15:55:27.215Z,3.70
2018-02-24T15:57:56.349Z,3.40
2018-02-24T16:00:24.673Z,3.40
2018-02-24T16:02:53.023Z,3.30
2018-02-24T16:05:21.446Z,3.10
2018-02-24T16:07:49.829Z,3.00
2018-02-24T16:10:18.127Z,2.70
2018-02-24T16:12:46.519Z,2.40
2018-02-24T16:15:14.942Z,2.20
2018-02-24T16:17:43.352Z,1.90
2018-02-24T16:20:11.705Z,1.70
2018-02-24T16:22:40.049Z,1.60
2018-02-24T16:25:08.417Z,1.50
2018-02-24T16:27:36.791Z,1.40
2018-02-24T16:30:05.364Z,1.30
2018-02-24T16:32:33.697Z,1.20
2018-02-24T16:35:02.020Z,1.10
2018-02-24T16:37:30.371Z,1.00
2018-02-24T16:39:58.798Z,0.90
2018-02-24T16:42:27.167Z,0.80
2018-02-24T16:44:55.556Z,0.80
2018-02-24T16:47:24.046Z,0.70
2018-02-24T16:49:52.374Z,0.60
2018-02-24T16:52:21.501Z,0.40
2018-02-24T16:54:49.994Z,0.40
2018-02-24T16:57:18.366Z,0.30
2018-02-24T16:59:47.780Z,0.10
2018-02-24T17:02:16.165Z,0.10
2018-02-24T17:04:44.500Z,0.00
2018-02-24T17:07:13.627Z,-0.10
2018-02-24T17:09:42.031Z,-0.10
2018-02-24T17:12:10.431Z,-0.20
2018-02-24T17:14:38.765Z,-0.30
2018-02-24T17:17:07.159Z,-0.30
2018-02-24T17:19:35.502Z,-0.40
2018-02-24T17:22:04.609Z,-0.50
2018-02-24T17:24:32.960Z,-0.50
2018-02-24T17:27:02.060Z,-0.60
2018-02-24T17:29:31.194Z,-0.60
2018-02-24T17:31:59.602Z,-0.70
2018-02-24T17:34:27.975Z,-0.70
2018-02-24T17:36:56.465Z,-0.70
2018-02-24T17:39:24.837Z,-0.70
2018-02-24T17:41:53.197Z,-0.70
2018-02-24T17:44:21.703Z,-0.70
2018-02-24T17:46:50.045Z,-0.80
2018-02-24T17:49:18.450Z,-0.80
2018-02-24T17:51:46.836Z,-0.80
2018-02-24T17:54:15.197Z,-0.90
2018-02-24T17:56:43.577Z,-0.90
2018-02-24T17:59:11.945Z,-0.90
2018-02-24T18:01:40.306Z,-0.90
2018-02-24T18:04:09.423Z,-1.00
2018-02-24T18:06:37.784Z,-1.00
2018-02-24T18:09:06.136Z,-1.00
2018-02-24T18:11:34.491Z,-1.10
2018-02-24T18:14:02.845Z,-1.10
2018-02-24T18:16:31.256Z,-1.10
2018-02-24T18:18:59.583Z,-1.10
2018-02-24T18:21:28.197Z,-1.20
2018-02-24T18:23:56.574Z,-1.20
2018-02-24T18:26:25.042Z,-1.30
2018-02-24T18:28:53.900Z,-1.30
2018-02-24T18:31:22.248Z,-1.30
2018-02-24T18:33:50.771Z,-1.40
2018-02-24T18:36:19.105Z,-1.40
2018-02-24T18:38:47.555Z,-1.50
2018-02-24T18:41:16.038Z,-1.50
2018-02-24T18:43:44.407Z,-1.50
2018-02-24T18:46:12.750Z,-1.60
2018-02-24T18:48:41.103Z,-1.60
2018-02-24T18:51:09.465Z,-1.60
2018-02-24T18:53:37.790Z,-1.60
2018-02-24T18:56:06.147Z,-1.60
2018-02-24T18:58:34.625Z,-1.60
2018-02-24T19:01:03.038Z,-1.60
2018-02-24T19:03:32.285Z,-1.60
2018-02-24T19:06:00.690Z,-1.70
2018-02-24T19:08:29.044Z,-1.70
2018-02-24T19:10:57.430Z,-1.70
2018-02-24T19:13:25.769Z,-1.70
2018-02-24T19:15:54.129Z,-1.70
2018-02-24T19:18:23.292Z,-1.80
2018-02-24T19:20:51.713Z,-1.80
2018-02-24T19:23:20.848Z,-1.80
2018-02-24T19:25:49.225Z,-1.90
2018-02-24T19:28:17.609Z,-1.90
2018-02-24T19:30:45.991Z,-1.90
2018-02-24T19:33:14.327Z,-1.90
2018-02-24T19:35:43.453Z,-2.00
2018-02-24T19:38:11.808Z,-2.00
2018-02-24T19:40:40.954Z,-2.00
2018-02-24T19:43:09.295Z,-2.10
2018-02-24T19:45:37.705Z,-2.00
2018-02-24T19:48:06.046Z,-2.00
2018-02-24T19:50:34.403Z,-2.00
2018-02-24T19:53:02.747Z,-2.00
2018-02-24T19:55:31.149Z,-2.10
2018-02-24T19:57:59.601Z,-2.10
2018-02-24T20:00:27.933Z,-2.10
2018-02-24T20:02:57.044Z,-2.20
2018-02-24T20:05:25.397Z,-2.20
2018-02-24T20:07:54.563Z,-2.20
2018-02-24T20:10:22.946Z,-2.20
2018-02-24T20:12:51.306Z,-2.20
2018-02-24T20:15:19.647Z,-2.20
2018-02-24T20:17:48.029Z,-2.20
2018-02-24T20:20:17.233Z,-2.20
2018-02-24T20:22:45.609Z,-2.30
2018-02-24T20:25:14.112Z,-2.30
2018-02-24T20:27:43.357Z,-2.30
2018-02-24T20:30:11.765Z,-2.30
2018-02-24T20:32:40.107Z,-2.30
2018-02-24T20:35:08.568Z,-2.40
2018-02-24T20:37:36.939Z,-2.40
2018-02-24T20:40:05.389Z,-2.40
2018-02-24T20:42:34.506Z,-2.50
2018-02-24T20:45:02.969Z,-2.40
2018-02-24T20:47:32.080Z,-2.50
2018-02-24T20:50:00.476Z,-2.50
2018-02-24T20:52:28.839Z,-2.50
2018-02-24T20:54:57.219Z,-2.60
2018-02-24T20:57:25.557Z,-2.60
2018-02-24T20:59:54.665Z,-2.60
2018-02-24T21:02:23.787Z,-2.60
2018-02-24T21:04:52.181Z,-2.60
2018-02-24T21:07:20.541Z,-2.60
2018-02-24T21:09:48.890Z,-2.70
2018-02-24T21:12:18.017Z,-2.70
2018-02-24T21:14:46.362Z,-2.70
2018-02-24T21:17:14.696Z,-2.70
2018-02-24T21:19:43.036Z,-2.80
2018-02-24T21:22:12.204Z,-2.90
2018-02-24T21:24:40.558Z,-2.90
2018-02-24T21:27:08.938Z,-2.90
2018-02-24T21:29:38.345Z,-3.00
2018-02-24T21:32:06.694Z,-3.00
2018-02-24T21:34:35.090Z,-3.00
2018-02-24T21:37:03.449Z,-3.00
2018-02-24T21:39:31.791Z,-3.10
2018-02-24T21:42:00.193Z,-3.10
2018-02-24T21:44:29.300Z,-3.20
2018-02-24T21:46:57.735Z,-3.20
2018-02-24T21:49:26.048Z,-3.20
2018-02-24T21:51:54.393Z,-3.20
2018-02-24T21:54:22.741Z,-3.30
2018-02-24T21:56:51.079Z,-3.30
2018-02-24T21:59:19.465Z,-3.30
2018-02-24T22:01:48.613Z,-3.40
2018-02-24T22:04:16.948Z,-3.40
2018-02-24T22:06:45.301Z,-3.40
2018-02-24T22:09:14.417Z,-3.50
2018-02-24T22:11:42.781Z,-3.50
2018-02-24T22:14:11.890Z,-3.50
2018-02-24T22:16:40.252Z,-3.50
2018-02-24T22:19:09.367Z,-3.50
2018-02-24T22:21:38.455Z,-3.60
2018-02-24T22:24:06.821Z,-3.60
2018-02-24T22:26:35.163Z,-3.60
2018-02-24T22:29:03.526Z,-3.60
2018-02-24T22:31:31.889Z,-3.50
2018-02-24T22:34:00.276Z,-3.50
2018-02-24T22:36:28.659Z,-3.50
2018-02-24T22:38:56.998Z,-3.50
2018-02-24T22:41:25.357Z,-3.50
2018-02-24T22:43:53.845Z,-3.60
2018-02-24T22:46:22.213Z,-3.60
2018-02-24T22:48:56.354Z,-3.60
2018-02-24T22:51:24.738Z,-3.60
2018-02-24T22:53:53.850Z,-3.70
2018-02-24T22:56:22.187Z,-3.70
2018-02-24T22:58:50.530Z,-3.70
2018-02-24T23:01:18.900Z,-3.80
2018-02-24T23:03:47.256Z,-3.80
2018-02-24T23:06:16.386Z,-3.90
2018-02-24T23:08:44.772Z,-3.90
2018-02-24T23:11:13.138Z,-3.90
2018-02-24T23:13:41.497Z,-3.90
2018-02-24T23:16:09.841Z,-3.90
2018-02-24T23:18:38.773Z,-3.90
2018-02-24T23:21:07.144Z,-3.90
2018-02-24T23:23:37.157Z,-3.90
2018-02-24T23:26:06.294Z,-3.90
2018-02-24T23:28:34.692Z,-4.00
2018-02-24T23:31:03.045Z,-4.00
2018-02-24T23:33:31.384Z,-4.00
2018-02-24T23:36:00.511Z,-4.00
2018-02-24T23:38:28.855Z,-4.00
2018-02-24T23:40:57.941Z,-4.00
2018-02-24T23:43:26.301Z,-4.00
2018-02-24T23:45:54.634Z,-4.00
2018-02-24T23:48:22.977Z,-4.10
2018-02-24T23:50:51.347Z,-4.10
2018-02-24T23:53:19.712Z,-4.10
2018-02-24T23:55:48.046Z,-4.10
2018-02-24T23:58:16.438Z,-4.10
